createdAt,value
2023-05-21T00:00:59.903Z,1000.60
2023-05-21T00:01:59.874Z,1000.61
2023-05-21T00:02:59.968Z,1000.58
2023-05-21T00:04:00.240Z,1000.61
2023-05-21T00:04:59.830Z,1000.56
2023-05-21T00:05:59.849Z,1000.57
2023-05-21T00:06:59.806Z,1000.56
2023-05-21T00:07:59.793Z,1000.56
2023-05-21T00:08:59.808Z,1000.53
2023-05-21T00:09:59.802Z,1000.55
2023-05-21T00:10:59.797Z,1000.52
2023-05-21T00:11:59.777Z,1000.53
2023-05-21T00:12:59.755Z,1000.53
2023-05-21T00:13:59.716Z,1000.52
2023-05-21T00:14:59.756Z,1000.50
2023-05-21T00:15:59.785Z,1000.55
2023-05-21T00:16:59.683Z,1000.54
2023-05-21T00:17:59.717Z,1000.51
2023-05-21T00:18:59.709Z,1000.49
2023-05-21T00:19:59.660Z,1000.49
2023-05-21T00:20:59.659Z,1000.49
2023-05-21T00:21:59.603Z,1000.50
2023-05-21T00:22:59.618Z,1000.47
2023-05-21T00:23:59.592Z,1000.50
2023-05-21T00:24:59.621Z,1000.45
2023-05-21T00:25:59.556Z,1000.39
2023-05-21T00:26:59.617Z,1000.42
2023-05-21T00:27:59.519Z,1000.40
2023-05-21T00:28:59.542Z,1000.37
2023-05-21T00:29:59.521Z,1000.39
2023-05-21T00:30:59.486Z,1000.37
2023-05-21T00:31:59.504Z,1000.37
2023-05-21T00:32:59.502Z,1000.41
2023-05-21T00:33:59.470Z,1000.39
2023-05-21T00:34:59.442Z,1000.35
2023-05-21T00:35:59.441Z,1000.36
2023-05-21T00:36:59.412Z,1000.37
2023-05-21T00:37:59.397Z,1000.37
2023-05-21T00:38:59.392Z,1000.32
2023-05-21T00:39:59.371Z,1000.33
2023-05-21T00:40:59.355Z,1000.31
2023-05-21T00:41:59.330Z,1000.31
2023-05-21T00:42:59.330Z,1000.29
2023-05-21T00:43:59.330Z,1000.25
2023-05-21T00:44:59.307Z,1000.25
2023-05-21T00:45:59.304Z,1000.23
2023-05-21T00:46:59.274Z,1000.23
2023-05-21T00:47:59.325Z,1000.23
2023-05-21T00:48:59.275Z,1000.22
2023-05-21T00:49:59.254Z,1000.18
2023-05-21T00:50:59.279Z,1000.20
2023-05-21T00:51:59.212Z,1000.16
2023-05-21T00:52:59.214Z,1000.22
2023-05-21T00:53:59.189Z,1000.18
2023-05-21T00:54:59.166Z,1000.17
2023-05-21T00:55:59.161Z,1000.17
2023-05-21T00:56:59.145Z,1000.15
2023-05-21T00:57:59.149Z,1000.12
2023-05-21T00:58:59.112Z,1000.11
2023-05-21T00:59:59.097Z,1000.11
2023-05-21T01:00:59.131Z,1000.11
2023-05-21T01:01:59.145Z,1000.09
2023-05-21T01:02:59.164Z,1000.10
2023-05-21T01:03:59.065Z,1000.08
2023-05-21T01:04:59.035Z,1000.10
2023-05-21T01:05:59.031Z,1000.08
2023-05-21T01:06:59.033Z,1000.10
2023-05-21T01:07:59.013Z,1000.09
2023-05-21T01:08:58.982Z,1000.07
2023-05-21T01:09:58.976Z,1000.10
2023-05-21T01:10:58.984Z,1000.06
2023-05-21T01:11:58.970Z,1000.07
2023-05-21T01:12:58.934Z,1000.06
2023-05-21T01:13:58.926Z,1000.05
2023-05-21T01:14:58.899Z,1000.06
2023-05-21T01:15:58.896Z,1000.04
2023-05-21T01:16:58.946Z,1000.02
2023-05-21T01:17:58.995Z,1000.03
2023-05-21T01:18:58.947Z,1000.05
2023-05-21T01:19:58.845Z,1000.04
2023-05-21T01:20:58.841Z,1000.08
2023-05-21T01:21:58.840Z,1000.08
2023-05-21T01:22:58.801Z,1000.09
2023-05-21T01:23:58.790Z,1000.04
2023-05-21T01:24:58.775Z,1000.07
2023-05-21T01:25:58.807Z,1000.08
2023-05-21T01:26:58.757Z,1000.06
2023-05-21T01:27:58.728Z,1000.07
2023-05-21T01:28:58.717Z,1000.09
2023-05-21T01:29:58.702Z,1000.09
2023-05-21T01:30:58.704Z,1000.07
2023-05-21T01:31:58.678Z,1000.07
2023-05-21T01:32:58.812Z,1000.05
2023-05-21T01:33:58.721Z,1000.02
2023-05-21T01:34:58.644Z,1000.04
2023-05-21T01:35:58.652Z,1000.03
2023-05-21T01:36:58.667Z,1000.03
2023-05-21T01:37:58.614Z,1000.04
2023-05-21T01:38:58.590Z,1000.02
2023-05-21T01:39:58.582Z,1000.00
2023-05-21T01:40:58.595Z,1000.01
2023-05-21T01:41:58.546Z,999.98
2023-05-21T01:42:58.541Z,999.96
2023-05-21T01:43:58.512Z,999.95
2023-05-21T01:44:58.525Z,999.98
2023-05-21T01:45:58.494Z,999.95
2023-05-21T01:46:58.482Z,999.98
2023-05-21T01:47:58.499Z,1000.00
2023-05-21T01:48:58.454Z,999.96
2023-05-21T01:49:58.464Z,999.99
2023-05-21T01:50:58.444Z,999.98
2023-05-21T01:51:58.411Z,999.97
2023-05-21T01:52:58.422Z,999.95
2023-05-21T01:53:58.382Z,999.90
2023-05-21T01:54:58.390Z,999.91
2023-05-21T01:55:58.368Z,999.94
2023-05-21T01:56:58.347Z,999.85
2023-05-21T01:57:59.434Z,999.89
2023-05-21T01:58:58.322Z,999.89
2023-05-21T01:59:58.323Z,999.92
2023-05-21T02:00:58.311Z,999.87
2023-05-21T02:01:58.320Z,999.85
2023-05-21T02:02:58.353Z,999.81
2023-05-21T02:03:58.475Z,999.87
2023-05-21T02:04:58.241Z,999.86
2023-05-21T02:05:58.223Z,999.88
2023-05-21T02:06:58.217Z,999.87
2023-05-21T02:07:58.232Z,999.88
2023-05-21T02:08:58.206Z,999.89
2023-05-21T02:09:58.173Z,999.88
2023-05-21T02:10:58.182Z,999.82
2023-05-21T02:11:58.193Z,999.85
2023-05-21T02:12:58.135Z,999.86
2023-05-21T02:13:58.132Z,999.85
2023-05-21T02:14:58.117Z,999.86
2023-05-21T02:15:58.165Z,999.84
2023-05-21T02:16:58.083Z,999.86
2023-05-21T02:17:58.131Z,999.86
2023-05-21T02:18:58.116Z,999.83
2023-05-21T02:19:58.051Z,999.82
2023-05-21T02:20:58.031Z,999.81
2023-05-21T02:21:58.026Z,999.82
2023-05-21T02:22:58.030Z,999.82
2023-05-21T02:23:57.990Z,999.87
2023-05-21T02:24:57.979Z,999.79
2023-05-21T02:25:57.974Z,999.82
2023-05-21T02:26:57.973Z,999.78
2023-05-21T02:27:57.957Z,999.79
2023-05-21T02:28:57.932Z,999.75
2023-05-21T02:29:57.911Z,999.79
2023-05-21T02:30:57.903Z,999.79
2023-05-21T02:31:57.907Z,999.73
2023-05-21T02:32:57.939Z,999.72
2023-05-21T02:33:57.910Z,999.74
2023-05-21T02:34:57.852Z,999.70
2023-05-21T02:35:57.835Z,999.66
2023-05-21T02:36:57.846Z,999.64
2023-05-21T02:37:57.818Z,999.65
2023-05-21T02:38:57.806Z,999.69
2023-05-21T02:39:57.794Z,999.67
2023-05-21T02:40:57.803Z,999.66
2023-05-21T02:41:57.772Z,999.65
2023-05-21T02:42:57.756Z,999.66
2023-05-21T02:43:57.729Z,999.63
2023-05-21T02:44:57.726Z,999.63
2023-05-21T02:45:57.748Z,999.65
2023-05-21T02:46:57.719Z,999.61
2023-05-21T02:47:57.761Z,999.62
2023-05-21T02:48:57.661Z,999.60
2023-05-21T02:49:57.645Z,999.61
2023-05-21T02:50:57.648Z,999.65
2023-05-21T02:51:57.640Z,999.65
2023-05-21T02:52:57.606Z,999.68
2023-05-21T02:53:57.587Z,999.68
2023-05-21T02:54:57.575Z,999.70
2023-05-21T02:55:57.599Z,999.67
2023-05-21T02:56:57.543Z,999.69
2023-05-21T02:57:57.542Z,999.69
2023-05-21T02:58:57.526Z,999.71
2023-05-21T02:59:57.514Z,999.70
2023-05-21T03:00:57.544Z,999.67
2023-05-21T03:01:57.505Z,999.67
2023-05-21T03:02:57.681Z,999.67
2023-05-21T03:03:57.456Z,999.65
2023-05-21T03:04:57.447Z,999.66
2023-05-21T03:05:57.440Z,999.66
2023-05-21T03:06:57.431Z,999.65
2023-05-21T03:07:57.406Z,999.61
2023-05-21T03:08:57.387Z,999.63
2023-05-21T03:09:57.391Z,999.60
2023-05-21T03:10:57.374Z,999.61
2023-05-21T03:11:57.348Z,999.59
2023-05-21T03:12:57.354Z,999.61
2023-05-21T03:13:57.322Z,999.65
2023-05-21T03:14:57.324Z,999.67
2023-05-21T03:15:57.302Z,999.67
2023-05-21T03:16:57.306Z,999.66
2023-05-21T03:17:57.329Z,999.65
2023-05-21T03:18:57.311Z,999.63
2023-05-21T03:19:57.253Z,999.62
2023-05-21T03:20:57.217Z,999.62
2023-05-21T03:21:57.214Z,999.60
2023-05-21T03:22:57.211Z,999.55
2023-05-21T03:23:57.189Z,999.60
2023-05-21T03:24:57.198Z,999.56
2023-05-21T03:25:57.190Z,999.56
2023-05-21T03:26:57.169Z,999.58
2023-05-21T03:27:57.132Z,999.57
2023-05-21T03:28:57.111Z,999.56
2023-05-21T03:29:57.125Z,999.56
2023-05-21T03:30:57.100Z,999.62
2023-05-21T03:31:57.127Z,999.60
2023-05-21T03:32:57.106Z,999.61
2023-05-21T03:33:57.056Z,999.57
2023-05-21T03:34:57.054Z,999.58
2023-05-21T03:35:57.029Z,999.60
2023-05-21T03:36:57.032Z,999.61
2023-05-21T03:37:57.024Z,999.62
2023-05-21T03:38:57.012Z,999.56
2023-05-21T03:39:57.021Z,999.57
2023-05-21T03:40:56.969Z,999.57
2023-05-21T03:41:56.956Z,999.59
2023-05-21T03:42:57.246Z,999.59
2023-05-21T03:43:57.032Z,999.63
2023-05-21T03:44:57.088Z,999.60
2023-05-21T03:45:56.974Z,999.63
2023-05-21T03:46:57.172Z,999.60
2023-05-21T03:47:57.023Z,999.60
2023-05-21T03:48:56.981Z,999.60
2023-05-21T03:49:57.051Z,999.60
2023-05-21T03:50:56.864Z,999.61
2023-05-21T03:51:57.453Z,999.57
2023-05-21T03:52:56.820Z,999.55
2023-05-21T03:53:57.207Z,999.56
2023-05-21T03:54:56.838Z,999.54
2023-05-21T03:55:56.920Z,999.57
2023-05-21T03:56:56.939Z,999.53
2023-05-21T03:57:56.870Z,999.59
2023-05-21T03:58:57.368Z,999.55
2023-05-21T03:59:56.752Z,999.56
2023-05-21T04:00:56.738Z,999.56
2023-05-21T04:01:56.679Z,999.57
2023-05-21T04:02:56.846Z,999.60
2023-05-21T04:03:57.026Z,999.56
2023-05-21T04:04:57.051Z,999.59
2023-05-21T04:05:56.812Z,999.57
2023-05-21T04:06:56.698Z,999.59
2023-05-21T04:07:56.634Z,999.57
2023-05-21T04:08:57.293Z,999.60
2023-05-21T04:09:56.573Z,999.60
2023-05-21T04:10:56.674Z,999.61
2023-05-21T04:11:56.625Z,999.59
2023-05-21T04:12:56.727Z,999.60
2023-05-21T04:13:56.562Z,999.60
2023-05-21T04:14:56.536Z,999.61
2023-05-21T04:15:56.578Z,999.59
2023-05-21T04:16:56.518Z,999.61
2023-05-21T04:17:56.536Z,999.57
2023-05-21T04:18:56.539Z,999.59
2023-05-21T04:19:56.434Z,999.59
2023-05-21T04:20:56.435Z,999.57
2023-05-21T04:21:56.516Z,999.62
2023-05-21T04:22:56.967Z,999.63
2023-05-21T04:23:56.451Z,999.60
2023-05-21T04:24:56.397Z,999.62
2023-05-21T04:25:56.415Z,999.65
2023-05-21T04:26:56.388Z,999.68
2023-05-21T04:27:56.338Z,999.65
2023-05-21T04:28:56.608Z,999.70
2023-05-21T04:29:56.312Z,999.67
2023-05-21T04:30:56.710Z,999.67
2023-05-21T04:31:56.567Z,999.67
2023-05-21T04:32:56.637Z,999.67
2023-05-21T04:33:57.071Z,999.68
2023-05-21T04:34:56.962Z,999.68
2023-05-21T04:35:57.252Z,999.65
2023-05-21T04:36:57.314Z,999.63
2023-05-21T04:37:56.379Z,999.65
2023-05-21T04:38:56.361Z,999.63
2023-05-21T04:39:56.535Z,999.66
2023-05-21T04:40:57.440Z,999.67
2023-05-21T04:41:56.159Z,999.69
2023-05-21T04:42:57.012Z,999.69
2023-05-21T04:43:57.710Z,999.65
2023-05-21T04:44:56.124Z,999.72
2023-05-21T04:45:56.245Z,999.68
2023-05-21T04:46:56.170Z,999.75
2023-05-21T04:47:56.112Z,999.74
2023-05-21T04:48:56.105Z,999.76
2023-05-21T04:49:56.058Z,999.77
2023-05-21T04:50:56.545Z,999.76
2023-05-21T04:51:56.056Z,999.82
2023-05-21T04:52:56.018Z,999.81
2023-05-21T04:53:56.789Z,999.81
2023-05-21T04:54:56.028Z,999.83
2023-05-21T04:55:55.961Z,999.85
2023-05-21T04:56:56.491Z,999.85
2023-05-21T04:57:56.542Z,999.85
2023-05-21T04:58:55.974Z,999.87
2023-05-21T04:59:55.935Z,999.85
2023-05-21T05:00:56.838Z,999.85
2023-05-21T05:01:56.118Z,999.86
2023-05-21T05:02:55.900Z,999.85
2023-05-21T05:03:55.913Z,999.85
2023-05-21T05:04:55.866Z,999.84
2023-05-21T05:05:55.840Z,999.86
2023-05-21T05:06:55.833Z,999.84
2023-05-21T05:07:55.802Z,999.84
2023-05-21T05:08:55.811Z,999.80
2023-05-21T05:09:55.836Z,999.82
2023-05-21T05:10:55.772Z,999.82
2023-05-21T05:11:55.751Z,999.84
2023-05-21T05:12:55.753Z,999.80
2023-05-21T05:13:55.754Z,999.80
2023-05-21T05:14:55.744Z,999.82
2023-05-21T05:15:55.699Z,999.81
2023-05-21T05:16:55.741Z,999.83
2023-05-21T05:17:55.681Z,999.77
2023-05-21T05:18:55.741Z,999.78
2023-05-21T05:19:55.646Z,999.79
2023-05-21T05:20:55.644Z,999.77
2023-05-21T05:21:55.649Z,999.79
2023-05-21T05:22:55.636Z,999.73
2023-05-21T05:23:55.612Z,999.79
2023-05-21T05:24:55.584Z,999.76
2023-05-21T05:25:55.573Z,999.75
2023-05-21T05:26:55.553Z,999.76
2023-05-21T05:27:55.559Z,999.76
2023-05-21T05:28:55.541Z,999.76
2023-05-21T05:29:55.505Z,999.75
2023-05-21T05:30:55.591Z,999.75
2023-05-21T05:31:55.485Z,999.78
2023-05-21T05:32:55.532Z,999.79
2023-05-21T05:33:55.462Z,999.77
2023-05-21T05:34:55.451Z,999.74
2023-05-21T05:35:55.439Z,999.73
2023-05-21T05:36:55.422Z,999.74
2023-05-21T05:37:55.547Z,999.77
2023-05-21T05:38:55.390Z,999.74
2023-05-21T05:39:55.405Z,999.77
2023-05-21T05:40:55.418Z,999.77
2023-05-21T05:41:55.373Z,999.74
2023-05-21T05:42:55.353Z,999.75
2023-05-21T05:43:55.330Z,999.76
2023-05-21T05:44:55.324Z,999.75
2023-05-21T05:45:55.316Z,999.76
2023-05-21T05:46:55.301Z,999.73
2023-05-21T05:47:55.317Z,999.77
2023-05-21T05:48:55.258Z,999.74
2023-05-21T05:49:55.258Z,999.73
2023-05-21T05:50:55.256Z,999.71
2023-05-21T05:51:55.235Z,999.76
2023-05-21T05:52:55.201Z,999.75
2023-05-21T05:53:55.190Z,999.71
2023-05-21T05:54:55.184Z,999.78
2023-05-21T05:55:55.161Z,999.77
2023-05-21T05:56:55.165Z,999.76
2023-05-21T05:57:55.144Z,999.83
2023-05-21T05:58:55.119Z,999.78
2023-05-21T05:59:55.121Z,999.80
2023-05-21T06:00:55.108Z,999.80
2023-05-21T06:01:55.105Z,999.79
2023-05-21T06:02:55.173Z,999.80
2023-05-21T06:03:55.729Z,999.81
2023-05-21T06:04:55.049Z,999.80
2023-05-21T06:05:55.113Z,999.78
2023-05-21T06:06:55.035Z,999.79
2023-05-21T06:07:55.001Z,999.78
2023-05-21T06:08:54.993Z,999.72
2023-05-21T06:09:55.003Z,999.76
2023-05-21T06:10:54.980Z,999.80
2023-05-21T06:11:54.943Z,999.79
2023-05-21T06:12:54.931Z,999.77
2023-05-21T06:13:54.928Z,999.79
2023-05-21T06:14:54.922Z,999.79
2023-05-21T06:15:54.989Z,999.79
2023-05-21T06:16:54.885Z,999.78
2023-05-21T06:17:54.902Z,999.81
2023-05-21T06:18:54.904Z,999.80
2023-05-21T06:19:54.864Z,999.75
2023-05-21T06:20:54.819Z,999.71
2023-05-21T06:21:54.810Z,999.74
2023-05-21T06:22:54.799Z,999.75
2023-05-21T06:23:54.784Z,999.73
2023-05-21T06:24:54.790Z,999.72
2023-05-21T06:25:54.759Z,999.74
2023-05-21T06:26:54.754Z,999.74
2023-05-21T06:27:54.741Z,999.76
2023-05-21T06:28:54.716Z,999.80
2023-05-21T06:29:54.725Z,999.78
2023-05-21T06:30:54.685Z,999.78
2023-05-21T06:31:54.699Z,999.80
2023-05-21T06:32:54.739Z,999.76
2023-05-21T06:33:54.915Z,999.78
2023-05-21T06:34:54.656Z,999.78
2023-05-21T06:35:54.639Z,999.77
2023-05-21T06:36:54.616Z,999.78
2023-05-21T06:37:54.599Z,999.80
2023-05-21T06:38:54.690Z,999.78
2023-05-21T06:39:54.589Z,999.79
2023-05-21T06:40:54.554Z,999.78
2023-05-21T06:41:54.553Z,999.80
2023-05-21T06:42:54.536Z,999.76
2023-05-21T06:43:54.553Z,999.72
2023-05-21T06:44:54.529Z,999.69
2023-05-21T06:45:54.578Z,999.69
2023-05-21T06:46:54.474Z,999.68
2023-05-21T06:47:54.654Z,999.68
2023-05-21T06:48:54.466Z,999.67
2023-05-21T06:49:54.452Z,999.71
2023-05-21T06:50:54.435Z,999.73
2023-05-21T06:51:54.425Z,999.69
2023-05-21T06:52:54.421Z,999.66
2023-05-21T06:53:54.444Z,999.68
2023-05-21T06:54:54.384Z,999.65
2023-05-21T06:55:54.367Z,999.67
2023-05-21T06:56:54.347Z,999.67
2023-05-21T06:57:54.347Z,999.70
2023-05-21T06:58:54.324Z,999.69
2023-05-21T06:59:54.309Z,999.66
2023-05-21T07:00:54.327Z,999.69
2023-05-21T07:01:54.308Z,999.69
2023-05-21T07:02:54.370Z,999.71
2023-05-21T07:03:54.294Z,999.68
2023-05-21T07:04:54.249Z,999.67
2023-05-21T07:05:54.357Z,999.68
2023-05-21T07:06:54.235Z,999.68
2023-05-21T07:07:54.210Z,999.68
2023-05-21T07:08:54.182Z,999.66
2023-05-21T07:09:54.188Z,999.62
2023-05-21T07:10:54.170Z,999.69
2023-05-21T07:11:54.164Z,999.67
2023-05-21T07:12:54.140Z,999.67
2023-05-21T07:13:54.221Z,999.68
2023-05-21T07:14:54.162Z,999.68
2023-05-21T07:15:54.123Z,999.67
2023-05-21T07:16:54.137Z,999.68
2023-05-21T07:17:54.111Z,999.68
2023-05-21T07:18:54.136Z,999.67
2023-05-21T07:19:54.054Z,999.65
2023-05-21T07:20:54.048Z,999.66
2023-05-21T07:21:54.040Z,999.71
2023-05-21T07:22:54.009Z,999.72
2023-05-21T07:23:53.997Z,999.66
2023-05-21T07:24:53.999Z,999.68
2023-05-21T07:25:53.995Z,999.65
2023-05-21T07:26:53.986Z,999.67
2023-05-21T07:27:53.957Z,999.66
2023-05-21T07:28:53.960Z,999.70
2023-05-21T07:29:53.964Z,999.68
2023-05-21T07:30:53.982Z,999.67
2023-05-21T07:31:53.917Z,999.65
2023-05-21T07:32:53.945Z,999.67
2023-05-21T07:33:53.899Z,999.66
2023-05-21T07:34:54.403Z,999.66
2023-05-21T07:35:53.925Z,999.66
2023-05-21T07:36:53.842Z,999.66
2023-05-21T07:37:54.012Z,999.64
2023-05-21T07:38:53.877Z,999.65
2023-05-21T07:39:53.825Z,999.65
2023-05-21T07:40:53.812Z,999.61
2023-05-21T07:41:53.766Z,999.62
2023-05-21T07:42:53.739Z,999.63
2023-05-21T07:43:53.739Z,999.61
2023-05-21T07:44:53.744Z,999.61
2023-05-21T07:45:53.751Z,999.59
2023-05-21T07:46:53.680Z,999.57
2023-05-21T07:47:53.789Z,999.54
2023-05-21T07:48:53.690Z,999.59
2023-05-21T07:49:53.672Z,999.56
2023-05-21T07:50:53.679Z,999.55
2023-05-21T07:51:53.629Z,999.52
2023-05-21T07:52:53.641Z,999.54
2023-05-21T07:53:55.244Z,999.52
2023-05-21T07:54:53.598Z,999.49
2023-05-21T07:55:53.579Z,999.53
2023-05-21T07:56:53.568Z,999.51
2023-05-21T07:57:53.552Z,999.48
2023-05-21T07:58:53.548Z,999.50
2023-05-21T07:59:53.531Z,999.51
2023-05-21T08:00:53.514Z,999.55
2023-05-21T08:01:53.501Z,999.54
2023-05-21T08:02:53.602Z,999.53
2023-05-21T08:03:53.726Z,999.53
2023-05-21T08:04:53.499Z,999.53
2023-05-21T08:05:53.443Z,999.52
2023-05-21T08:06:53.441Z,999.48
2023-05-21T08:07:53.432Z,999.52
2023-05-21T08:08:53.419Z,999.50
2023-05-21T08:09:53.403Z,999.44
2023-05-21T08:10:53.383Z,999.45
2023-05-21T08:11:53.368Z,999.43
2023-05-21T08:12:53.347Z,999.47
2023-05-21T08:13:53.352Z,999.45
2023-05-21T08:14:53.338Z,999.47
2023-05-21T08:15:53.772Z,999.42
2023-05-21T08:16:53.348Z,999.41
2023-05-21T08:17:53.346Z,999.42
2023-05-21T08:18:53.373Z,999.40
2023-05-21T08:19:53.276Z,999.40
2023-05-21T08:20:53.248Z,999.40
2023-05-21T08:21:53.311Z,999.39
2023-05-21T08:22:53.227Z,999.41
2023-05-21T08:23:53.204Z,999.39
2023-05-21T08:24:53.189Z,999.38
2023-05-21T08:25:53.183Z,999.38
2023-05-21T08:26:53.160Z,999.40
2023-05-21T08:27:53.175Z,999.33
2023-05-21T08:28:53.170Z,999.33
2023-05-21T08:29:53.151Z,999.36
2023-05-21T08:30:53.125Z,999.34
2023-05-21T08:31:53.129Z,999.32
2023-05-21T08:32:53.194Z,999.31
2023-05-21T08:33:53.069Z,999.33
2023-05-21T08:34:53.058Z,999.31
2023-05-21T08:35:53.046Z,999.32
2023-05-21T08:36:53.045Z,999.29
2023-05-21T08:37:53.056Z,999.25
2023-05-21T08:38:53.022Z,999.27
2023-05-21T08:39:52.990Z,999.31
2023-05-21T08:40:52.966Z,999.31
2023-05-21T08:41:52.979Z,999.28
2023-05-21T08:42:52.945Z,999.26
2023-05-21T08:43:54.269Z,999.30
2023-05-21T08:44:52.938Z,999.28
2023-05-21T08:45:52.910Z,999.26
2023-05-21T08:46:52.926Z,999.27
2023-05-21T08:47:52.930Z,999.26
2023-05-21T08:48:52.866Z,999.23
2023-05-21T08:49:52.868Z,999.25
2023-05-21T08:50:52.875Z,999.22
2023-05-21T08:51:52.877Z,999.21
2023-05-21T08:52:52.817Z,999.24
2023-05-21T08:53:52.822Z,999.25
2023-05-21T08:54:52.779Z,999.26
2023-05-21T08:55:52.828Z,999.28
2023-05-21T08:56:52.757Z,999.25
2023-05-21T08:57:52.745Z,999.24
2023-05-21T08:58:52.827Z,999.24
2023-05-21T08:59:52.755Z,999.24
2023-05-21T09:00:52.809Z,999.28
2023-05-21T09:01:52.828Z,999.24
2023-05-21T09:02:52.706Z,999.20
2023-05-21T09:03:53.514Z,999.21
2023-05-21T09:04:52.677Z,999.17
2023-05-21T09:05:52.684Z,999.11
2023-05-21T09:06:52.643Z,999.10
2023-05-21T09:07:52.889Z,999.08
2023-05-21T09:08:52.607Z,999.07
2023-05-21T09:09:52.605Z,999.09
2023-05-21T09:10:52.584Z,999.05
2023-05-21T09:11:52.558Z,999.02
2023-05-21T09:12:52.548Z,999.06
2023-05-21T09:13:52.557Z,999.05
2023-05-21T09:14:52.547Z,999.07
2023-05-21T09:15:52.512Z,999.09
2023-05-21T09:16:52.506Z,999.06
2023-05-21T09:17:52.504Z,999.08
2023-05-21T09:18:52.529Z,999.01
2023-05-21T09:19:52.470Z,999.04
2023-05-21T09:20:52.446Z,999.01
2023-05-21T09:21:52.462Z,999.02
2023-05-21T09:22:52.396Z,999.01
2023-05-21T09:23:52.420Z,999.02
2023-05-21T09:24:52.428Z,999.00
2023-05-21T09:25:52.383Z,998.98
2023-05-21T09:26:52.362Z,998.99
2023-05-21T09:27:52.323Z,998.99
2023-05-21T09:28:52.349Z,999.01
2023-05-21T09:29:52.317Z,999.03
2023-05-21T09:30:52.312Z,999.01
2023-05-21T09:31:52.386Z,999.02
2023-05-21T09:32:52.347Z,999.00
2023-05-21T09:33:52.278Z,999.01
2023-05-21T09:34:52.247Z,999.02
2023-05-21T09:35:52.236Z,999.05
2023-05-21T09:36:52.227Z,999.01
2023-05-21T09:37:52.234Z,999.02
2023-05-21T09:38:52.450Z,999.03
2023-05-21T09:39:52.199Z,999.03
2023-05-21T09:40:52.184Z,999.03
2023-05-21T09:41:52.159Z,999.01
2023-05-21T09:42:52.163Z,999.03
2023-05-21T09:43:52.127Z,998.98
2023-05-21T09:44:52.108Z,998.97
2023-05-21T09:45:52.129Z,998.97
2023-05-21T09:46:52.438Z,998.95
2023-05-21T09:47:52.145Z,999.00
2023-05-21T09:48:52.061Z,998.97
2023-05-21T09:49:52.067Z,998.94
2023-05-21T09:50:52.074Z,998.93
2023-05-21T09:51:52.023Z,998.93
2023-05-21T09:52:52.015Z,998.89
2023-05-21T09:53:51.988Z,998.90
2023-05-21T09:54:51.969Z,998.88
2023-05-21T09:55:51.963Z,998.86
2023-05-21T09:56:51.983Z,998.86
2023-05-21T09:57:51.954Z,998.86
2023-05-21T09:58:51.945Z,998.88
2023-05-21T09:59:51.909Z,998.87
2023-05-21T10:00:51.911Z,998.87
2023-05-21T10:01:51.999Z,998.84
2023-05-21T10:02:51.975Z,998.79
2023-05-21T10:03:51.891Z,998.81
2023-05-21T10:04:52.041Z,998.78
2023-05-21T10:05:51.840Z,998.78
2023-05-21T10:06:51.846Z,998.73
2023-05-21T10:07:51.806Z,998.74
2023-05-21T10:08:51.794Z,998.75
2023-05-21T10:09:51.838Z,998.70
2023-05-21T10:10:51.812Z,998.67
2023-05-21T10:11:51.775Z,998.61
2023-05-21T10:12:51.730Z,998.59
2023-05-21T10:13:51.748Z,998.60
2023-05-21T10:14:51.714Z,998.57
2023-05-21T10:15:51.728Z,998.58
2023-05-21T10:16:51.786Z,998.54
2023-05-21T10:17:51.694Z,998.55
2023-05-21T10:18:51.743Z,998.55
2023-05-21T10:19:51.676Z,998.56
2023-05-21T10:20:51.709Z,998.59
2023-05-21T10:21:52.737Z,998.59
2023-05-21T10:22:51.685Z,998.58
2023-05-21T10:23:51.596Z,998.55
2023-05-21T10:24:51.584Z,998.55
2023-05-21T10:25:51.582Z,998.58
2023-05-21T10:26:51.563Z,998.56
2023-05-21T10:27:51.566Z,998.56
2023-05-21T10:28:51.547Z,998.52
2023-05-21T10:29:51.574Z,998.52
2023-05-21T10:30:51.524Z,998.52
2023-05-21T10:31:51.520Z,998.53
2023-05-21T10:32:51.608Z,998.49
2023-05-21T10:33:51.458Z,998.50
2023-05-21T10:34:51.473Z,998.53
2023-05-21T10:35:53.097Z,998.49
2023-05-21T10:36:51.452Z,998.46
2023-05-21T10:37:51.419Z,998.46
2023-05-21T10:38:51.399Z,998.46
2023-05-21T10:39:51.451Z,998.49
2023-05-21T10:40:51.381Z,998.45
2023-05-21T10:41:53.964Z,998.42
2023-05-21T10:42:51.341Z,998.40
2023-05-21T10:43:51.348Z,998.42
2023-05-21T10:44:51.337Z,998.45
2023-05-21T10:45:51.354Z,998.44
2023-05-21T10:46:51.288Z,998.41
2023-05-21T10:47:53.607Z,998.43
2023-05-21T10:48:51.282Z,998.41
2023-05-21T10:49:51.242Z,998.38
2023-05-21T10:50:51.307Z,998.38
2023-05-21T10:51:51.240Z,998.39
2023-05-21T10:52:51.273Z,998.38
2023-05-21T10:53:51.223Z,998.40
2023-05-21T10:54:51.185Z,998.37
2023-05-21T10:55:51.171Z,998.40
2023-05-21T10:56:51.155Z,998.37
2023-05-21T10:57:51.161Z,998.36
2023-05-21T10:58:51.159Z,998.38
2023-05-21T10:59:51.130Z,998.37
2023-05-21T11:00:51.172Z,998.38
2023-05-21T11:01:51.166Z,998.30
2023-05-21T11:02:51.235Z,998.31
2023-05-21T11:03:51.217Z,998.36
2023-05-21T11:04:51.054Z,998.31
2023-05-21T11:05:51.061Z,998.33
2023-05-21T11:06:51.383Z,998.36
2023-05-21T11:07:51.220Z,998.34
2023-05-21T11:08:52.221Z,998.35
2023-05-21T11:09:51.012Z,998.30
2023-05-21T11:10:51.438Z,998.30
2023-05-21T11:11:50.977Z,998.33
2023-05-21T11:12:51.036Z,998.34
2023-05-21T11:13:50.935Z,998.33
2023-05-21T11:14:50.914Z,998.33
2023-05-21T11:15:50.908Z,998.34
2023-05-21T11:16:50.951Z,998.32
2023-05-21T11:17:50.957Z,998.31
2023-05-21T11:18:50.905Z,998.32
2023-05-21T11:19:50.864Z,998.28
2023-05-21T11:20:50.852Z,998.28
2023-05-21T11:21:50.862Z,998.31
2023-05-21T11:22:50.839Z,998.30
2023-05-21T11:23:50.886Z,998.30
2023-05-21T11:24:51.481Z,998.30
2023-05-21T11:25:50.779Z,998.30
2023-05-21T11:26:50.817Z,998.26
2023-05-21T11:27:50.771Z,998.24
2023-05-21T11:28:50.739Z,998.22
2023-05-21T11:29:50.728Z,998.21
2023-05-21T11:30:50.728Z,998.24
2023-05-21T11:31:50.729Z,998.25
2023-05-21T11:32:50.744Z,998.33
2023-05-21T11:33:50.668Z,998.26
2023-05-21T11:34:50.658Z,998.26
2023-05-21T11:35:50.654Z,998.29
2023-05-21T11:36:50.677Z,998.27
2023-05-21T11:37:50.682Z,998.25
2023-05-21T11:38:50.617Z,998.19
2023-05-21T11:39:50.602Z,998.22
2023-05-21T11:40:50.595Z,998.20
2023-05-21T11:41:50.569Z,998.24
2023-05-21T11:42:50.595Z,998.25
2023-05-21T11:43:50.551Z,998.26
2023-05-21T11:44:50.537Z,998.22
2023-05-21T11:45:50.534Z,998.24
2023-05-21T11:46:50.570Z,998.23
2023-05-21T11:47:50.510Z,998.26
2023-05-21T11:48:50.504Z,998.24
2023-05-21T11:49:50.524Z,998.22
2023-05-21T11:50:50.473Z,998.14
2023-05-21T11:51:50.445Z,998.16
2023-05-21T11:52:50.464Z,998.17
2023-05-21T11:53:50.430Z,998.16
2023-05-21T11:54:50.738Z,998.18
2023-05-21T11:55:50.401Z,998.16
2023-05-21T11:56:50.402Z,998.17
2023-05-21T11:57:50.375Z,998.16
2023-05-21T11:58:50.364Z,998.14
2023-05-21T11:59:50.358Z,998.17
2023-05-21T12:00:50.350Z,998.20
2023-05-21T12:01:50.316Z,998.18
2023-05-21T12:02:50.426Z,998.19
2023-05-21T12:03:50.376Z,998.18
2023-05-21T12:04:50.317Z,998.16
2023-05-21T12:05:50.327Z,998.18
2023-05-21T12:06:50.244Z,998.18
2023-05-21T12:07:50.393Z,998.19
2023-05-21T12:08:50.241Z,998.14
2023-05-21T12:09:50.258Z,998.14
2023-05-21T12:10:50.202Z,998.14
2023-05-21T12:11:50.183Z,998.13
2023-05-21T12:12:54.622Z,998.14
2023-05-21T12:13:51.215Z,998.11
2023-05-21T12:14:50.138Z,998.13
2023-05-21T12:15:50.129Z,998.12
2023-05-21T12:16:50.180Z,998.14
2023-05-21T12:17:50.188Z,998.17
2023-05-21T12:18:50.113Z,998.15
2023-05-21T12:19:50.068Z,998.19
2023-05-21T12:20:50.073Z,998.16
2023-05-21T12:21:50.039Z,998.14
2023-05-21T12:22:50.101Z,998.17
2023-05-21T12:23:50.054Z,998.19
2023-05-21T12:24:50.014Z,998.18
2023-05-21T12:25:49.989Z,998.18